sensor_id;sensor_type;location;lat;lon;timestamp;P1;durP1;ratioP1;P2;durP2;ratioP2
15677;SDS011;7939;50.814;6.368;2023-06-22T00:01:12;5.18;;;4.28;;
15677;SDS011;7939;50.814;6.368;2023-06-22T00:03:39;5.05;;;3.78;;
15677;SDS011;7939;50.814;6.368;2023-06-22T00:06:06;5.10;;;3.45;;
15677;SDS011;7939;50.814;6.368;2023-06-22T00:08:32;7.50;;;3.65;;
15677;SDS011;7939;50.814;6.368;2023-06-22T00:11:00;3.97;;;3.58;;
15677;SDS011;7939;50.814;6.368;2023-06-22T00:13:27;9.13;;;4.05;;
15677;SDS011;7939;50.814;6.368;2023-06-22T00:15:54;9.57;;;4.05;;
15677;SDS011;7939;50.814;6.368;2023-06-22T00:18:21;6.22;;;4.15;;
15677;SDS011;7939;50.814;6.368;2023-06-22T00:20:53;5.70;;;3.88;;
15677;SDS011;7939;50.814;6.368;2023-06-22T00:23:23;4.40;;;3.95;;
15677;SDS011;7939;50.814;6.368;2023-06-22T00:25:50;4.72;;;3.60;;
15677;SDS011;7939;50.814;6.368;2023-06-22T00:28:18;5.70;;;3.97;;
15677;SDS011;7939;50.814;6.368;2023-06-22T00:30:45;4.13;;;3.58;;
15677;SDS011;7939;50.814;6.368;2023-06-22T00:33:12;7.25;;;3.70;;
15677;SDS011;7939;50.814;6.368;2023-06-22T00:35:39;7.93;;;4.03;;
15677;SDS011;7939;50.814;6.368;2023-06-22T00:38:07;5.43;;;3.97;;
15677;SDS011;7939;50.814;6.368;2023-06-22T00:40:33;6.75;;;4.28;;
15677;SDS011;7939;50.814;6.368;2023-06-22T00:43:00;4.53;;;3.60;;
15677;SDS011;7939;50.814;6.368;2023-06-22T00:45:28;5.50;;;3.47;;
15677;SDS011;7939;50.814;6.368;2023-06-22T00:47:56;5.10;;;3.80;;
15677;SDS011;7939;50.814;6.368;2023-06-22T00:50:24;6.28;;;4.28;;
15677;SDS011;7939;50.814;6.368;2023-06-22T00:52:53;4.88;;;4.15;;
15677;SDS011;7939;50.814;6.368;2023-06-22T00:55:22;6.38;;;4.00;;
15677;SDS011;7939;50.814;6.368;2023-06-22T00:57:50;6.53;;;4.15;;
15677;SDS011;7939;50.814;6.368;2023-06-22T01:00:21;6.03;;;4.20;;
15677;SDS011;7939;50.814;6.368;2023-06-22T01:02:51;5.95;;;3.90;;
15677;SDS011;7939;50.814;6.368;2023-06-22T01:05:19;5.53;;;3.67;;
15677;SDS011;7939;50.814;6.368;2023-06-22T01:07:56;5.50;;;3.78;;
15677;SDS011;7939;50.814;6.368;2023-06-22T01:10:32;3.97;;;3.38;;
15677;SDS011;7939;50.814;6.368;2023-06-22T01:13:07;4.47;;;3.67;;
15677;SDS011;7939;50.814;6.368;2023-06-22T01:15:44;4.72;;;3.60;;
15677;SDS011;7939;50.814;6.368;2023-06-22T01:18:17;3.42;;;3.03;;
15677;SDS011;7939;50.814;6.368;2023-06-22T01:20:45;4.50;;;3.35;;
15677;SDS011;7939;50.814;6.368;2023-06-22T01:23:17;4.75;;;3.40;;
15677;SDS011;7939;50.814;6.368;2023-06-22T01:25:53;5.32;;;3.70;;
15677;SDS011;7939;50.814;6.368;2023-06-22T01:28:37;6.90;;;3.67;;
15677;SDS011;7939;50.814;6.368;2023-06-22T01:31:08;4.20;;;3.40;;
15677;SDS011;7939;50.814;6.368;2023-06-22T01:33:40;6.00;;;3.53;;
15677;SDS011;7939;50.814;6.368;2023-06-22T01:36:09;3.90;;;3.22;;
15677;SDS011;7939;50.814;6.368;2023-06-22T01:38:36;6.88;;;3.60;;
15677;SDS011;7939;50.814;6.368;2023-06-22T01:41:04;3.35;;;3.05;;
15677;SDS011;7939;50.814;6.368;2023-06-22T01:43:31;3.55;;;3.20;;
15677;SDS011;7939;50.814;6.368;2023-06-22T01:46:01;5.00;;;3.60;;
15677;SDS011;7939;50.814;6.368;2023-06-22T01:48:28;6.10;;;3.70;;
15677;SDS011;7939;50.814;6.368;2023-06-22T01:50:55;6.10;;;3.85;;
15677;SDS011;7939;50.814;6.368;2023-06-22T01:53:23;7.60;;;3.83;;
15677;SDS011;7939;50.814;6.368;2023-06-22T01:55:50;6.60;;;3.88;;
15677;SDS011;7939;50.814;6.368;2023-06-22T01:58:17;5.30;;;4.00;;
15677;SDS011;7939;50.814;6.368;2023-06-22T02:00:50;5.50;;;4.40;;
15677;SDS011;7939;50.814;6.368;2023-06-22T02:03:21;4.10;;;3.65;;
15677;SDS011;7939;50.814;6.368;2023-06-22T02:05:52;5.47;;;4.10;;
15677;SDS011;7939;50.814;6.368;2023-06-22T02:08:23;4.55;;;3.63;;
15677;SDS011;7939;50.814;6.368;2023-06-22T02:10:54;6.78;;;3.78;;
15677;SDS011;7939;50.814;6.368;2023-06-22T02:13:24;7.50;;;3.75;;
15677;SDS011;7939;50.814;6.368;2023-06-22T02:15:51;4.70;;;3.13;;
15677;SDS011;7939;50.814;6.368;2023-06-22T02:18:18;5.15;;;4.13;;
15677;SDS011;7939;50.814;6.368;2023-06-22T02:20:47;5.15;;;3.67;;
15677;SDS011;7939;50.814;6.368;2023-06-22T02:23:14;4.32;;;3.42;;
15677;SDS011;7939;50.814;6.368;2023-06-22T02:25:41;4.28;;;3.60;;
15677;SDS011;7939;50.814;6.368;2023-06-22T02:28:09;6.30;;;4.47;;
15677;SDS011;7939;50.814;6.368;2023-06-22T02:30:37;5.18;;;3.67;;
15677;SDS011;7939;50.814;6.368;2023-06-22T02:33:04;8.73;;;3.60;;
15677;SDS011;7939;50.814;6.368;2023-06-22T02:35:31;6.22;;;4.10;;
15677;SDS011;7939;50.814;6.368;2023-06-22T02:38:03;6.13;;;4.45;;
15677;SDS011;7939;50.814;6.368;2023-06-22T02:40:30;4.65;;;4.10;;
15677;SDS011;7939;50.814;6.368;2023-06-22T02:42:58;5.78;;;4.00;;
15677;SDS011;7939;50.814;6.368;2023-06-22T02:45:27;5.45;;;3.53;;
15677;SDS011;7939;50.814;6.368;2023-06-22T02:47:54;5.47;;;3.88;;
15677;SDS011;7939;50.814;6.368;2023-06-22T02:50:21;6.05;;;3.70;;
15677;SDS011;7939;50.814;6.368;2023-06-22T02:52:48;8.32;;;3.90;;
15677;SDS011;7939;50.814;6.368;2023-06-22T02:55:16;7.45;;;4.88;;
15677;SDS011;7939;50.814;6.368;2023-06-22T02:57:43;6.35;;;4.40;;
15677;SDS011;7939;50.814;6.368;2023-06-22T03:00:12;6.35;;;4.30;;
15677;SDS011;7939;50.814;6.368;2023-06-22T03:02:42;6.95;;;4.10;;
15677;SDS011;7939;50.814;6.368;2023-06-22T03:05:09;7.47;;;4.13;;
15677;SDS011;7939;50.814;6.368;2023-06-22T03:07:39;6.75;;;3.63;;
15677;SDS011;7939;50.814;6.368;2023-06-22T03:10:07;6.53;;;3.80;;
15677;SDS011;7939;50.814;6.368;2023-06-22T03:12:37;5.32;;;3.60;;
15677;SDS011;7939;50.814;6.368;2023-06-22T03:15:05;4.57;;;3.65;;
15677;SDS011;7939;50.814;6.368;2023-06-22T03:17:33;6.15;;;4.20;;
15677;SDS011;7939;50.814;6.368;2023-06-22T03:20:00;6.72;;;3.92;;
15677;SDS011;7939;50.814;6.368;2023-06-22T03:22:32;5.97;;;3.88;;
15677;SDS011;7939;50.814;6.368;2023-06-22T03:24:58;8.35;;;4.15;;
15677;SDS011;7939;50.814;6.368;2023-06-22T03:27:26;7.25;;;4.32;;
15677;SDS011;7939;50.814;6.368;2023-06-22T03:29:54;6.18;;;3.65;;
15677;SDS011;7939;50.814;6.368;2023-06-22T03:32:20;9.52;;;4.60;;
15677;SDS011;7939;50.814;6.368;2023-06-22T03:34:47;7.82;;;4.25;;
15677;SDS011;7939;50.814;6.368;2023-06-22T03:37:14;7.22;;;4.35;;
15677;SDS011;7939;50.814;6.368;2023-06-22T03:39:41;9.98;;;4.43;;
15677;SDS011;7939;50.814;6.368;2023-06-22T03:42:08;5.68;;;4.63;;
15677;SDS011;7939;50.814;6.368;2023-06-22T03:44:34;8.02;;;4.97;;
15677;SDS011;7939;50.814;6.368;2023-06-22T03:47:03;7.53;;;4.75;;
15677;SDS011;7939;50.814;6.368;2023-06-22T03:49:32;8.52;;;5.10;;
15677;SDS011;7939;50.814;6.368;2023-06-22T03:51:59;7.47;;;5.10;;
15677;SDS011;7939;50.814;6.368;2023-06-22T03:54:26;6.35;;;4.93;;
15677;SDS011;7939;50.814;6.368;2023-06-22T03:56:53;6.63;;;4.60;;
15677;SDS011;7939;50.814;6.368;2023-06-22T03:59:19;5.05;;;3.92;;
15677;SDS011;7939;50.814;6.368;2023-06-22T04:01:46;6.55;;;4.82;;
15677;SDS011;7939;50.814;6.368;2023-06-22T04:04:14;7.38;;;4.78;;
15677;SDS011;7939;50.814;6.368;2023-06-22T04:06:41;5.22;;;4.28;;
15677;SDS011;7939;50.814;6.368;2023-06-22T04:09:07;7.22;;;3.88;;
15677;SDS011;7939;50.814;6.368;2023-06-22T04:11:34;4.88;;;4.05;;
15677;SDS011;7939;50.814;6.368;2023-06-22T04:14:01;5.25;;;4.47;;
15677;SDS011;7939;50.814;6.368;2023-06-22T04:16:28;5.05;;;3.63;;
15677;SDS011;7939;50.814;6.368;2023-06-22T04:18:54;7.85;;;3.95;;
15677;SDS011;7939;50.814;6.368;2023-06-22T04:21:23;7.30;;;4.43;;
15677;SDS011;7939;50.814;6.368;2023-06-22T04:23:49;8.25;;;4.60;;
15677;SDS011;7939;50.814;6.368;2023-06-22T04:26:16;7.07;;;4.93;;
15677;SDS011;7939;50.814;6.368;2023-06-22T04:28:46;6.32;;;4.55;;
15677;SDS011;7939;50.814;6.368;2023-06-22T04:31:16;5.10;;;4.28;;
15677;SDS011;7939;50.814;6.368;2023-06-22T04:33:44;6.95;;;4.78;;
15677;SDS011;7939;50.814;6.368;2023-06-22T04:36:11;8.55;;;4.63;;
15677;SDS011;7939;50.814;6.368;2023-06-22T04:38:40;6.80;;;5.28;;
15677;SDS011;7939;50.814;6.368;2023-06-22T04:41:07;8.27;;;4.53;;
15677;SDS011;7939;50.814;6.368;2023-06-22T04:43:39;11.13;;;5.10;;
15677;SDS011;7939;50.814;6.368;2023-06-22T04:46:06;6.97;;;4.38;;
15677;SDS011;7939;50.814;6.368;2023-06-22T04:48:32;8.07;;;4.82;;
15677;SDS011;7939;50.814;6.368;2023-06-22T04:50:59;12.48;;;4.60;;
15677;SDS011;7939;50.814;6.368;2023-06-22T04:53:28;14.43;;;6.47;;
15677;SDS011;7939;50.814;6.368;2023-06-22T04:55:56;5.80;;;4.15;;
15677;SDS011;7939;50.814;6.368;2023-06-22T04:58:23;6.28;;;4.15;;
15677;SDS011;7939;50.814;6.368;2023-06-22T05:00:52;5.22;;;3.90;;
15677;SDS011;7939;50.814;6.368;2023-06-22T05:03:22;8.25;;;5.07;;
15677;SDS011;7939;50.814;6.368;2023-06-22T05:05:51;8.80;;;5.00;;
15677;SDS011;7939;50.814;6.368;2023-06-22T05:08:18;7.22;;;4.75;;
15677;SDS011;7939;50.814;6.368;2023-06-22T05:10:45;8.57;;;5.43;;
15677;SDS011;7939;50.814;6.368;2023-06-22T05:13:13;7.25;;;5.38;;
15677;SDS011;7939;50.814;6.368;2023-06-22T05:15:40;9.27;;;6.00;;
15677;SDS011;7939;50.814;6.368;2023-06-22T05:18:07;9.73;;;5.35;;
15677;SDS011;7939;50.814;6.368;2023-06-22T05:20:33;7.47;;;4.90;;
15677;SDS011;7939;50.814;6.368;2023-06-22T05:23:01;7.03;;;5.15;;
15677;SDS011;7939;50.814;6.368;2023-06-22T05:25:28;8.57;;;5.63;;
15677;SDS011;7939;50.814;6.368;2023-06-22T05:27:57;9.65;;;6.13;;
15677;SDS011;7939;50.814;6.368;2023-06-22T05:30:25;8.98;;;5.93;;
15677;SDS011;7939;50.814;6.368;2023-06-22T05:32:53;7.40;;;5.68;;
15677;SDS011;7939;50.814;6.368;2023-06-22T05:35:20;8.85;;;5.85;;
15677;SDS011;7939;50.814;6.368;2023-06-22T05:37:46;6.30;;;4.82;;
15677;SDS011;7939;50.814;6.368;2023-06-22T05:40:14;8.65;;;5.22;;
15677;SDS011;7939;50.814;6.368;2023-06-22T05:42:40;8.18;;;5.03;;
15677;SDS011;7939;50.814;6.368;2023-06-22T05:45:07;7.18;;;4.65;;
15677;SDS011;7939;50.814;6.368;2023-06-22T05:47:36;6.43;;;5.07;;
15677;SDS011;7939;50.814;6.368;2023-06-22T05:50:03;8.27;;;5.68;;
15677;SDS011;7939;50.814;6.368;2023-06-22T05:52:33;7.57;;;5.65;;
15677;SDS011;7939;50.814;6.368;2023-06-22T05:55:01;9.45;;;5.72;;
15677;SDS011;7939;50.814;6.368;2023-06-22T05:57:28;8.75;;;4.95;;
15677;SDS011;7939;50.814;6.368;2023-06-22T05:59:55;9.73;;;6.28;;
15677;SDS011;7939;50.814;6.368;2023-06-22T06:02:22;7.13;;;5.00;;
15677;SDS011;7939;50.814;6.368;2023-06-22T06:04:50;9.05;;;5.47;;
15677;SDS011;7939;50.814;6.368;2023-06-22T06:07:17;8.07;;;5.47;;
15677;SDS011;7939;50.814;6.368;2023-06-22T06:09:44;10.07;;;6.00;;
15677;SDS011;7939;50.814;6.368;2023-06-22T06:12:13;9.65;;;5.68;;
15677;SDS011;7939;50.814;6.368;2023-06-22T06:14:39;10.10;;;5.25;;
15677;SDS011;7939;50.814;6.368;2023-06-22T06:17:06;8.20;;;5.47;;
15677;SDS011;7939;50.814;6.368;2023-06-22T06:19:33;8.18;;;5.25;;
15677;SDS011;7939;50.814;6.368;2023-06-22T06:22:02;8.23;;;5.85;;
15677;SDS011;7939;50.814;6.368;2023-06-22T06:24:29;8.77;;;6.78;;
15677;SDS011;7939;50.814;6.368;2023-06-22T06:26:55;9.57;;;6.80;;
15677;SDS011;7939;50.814;6.368;2023-06-22T06:29:22;11.35;;;7.00;;
15677;SDS011;7939;50.814;6.368;2023-06-22T06:31:49;10.48;;;7.18;;
15677;SDS011;7939;50.814;6.368;2023-06-22T06:34:16;11.57;;;7.18;;
15677;SDS011;7939;50.814;6.368;2023-06-22T06:36:42;13.95;;;7.45;;
15677;SDS011;7939;50.814;6.368;2023-06-22T06:39:11;12.25;;;7.78;;
15677;SDS011;7939;50.814;6.368;2023-06-22T06:41:38;16.42;;;8.23;;
15677;SDS011;7939;50.814;6.368;2023-06-22T06:44:05;12.98;;;7.50;;
15677;SDS011;7939;50.814;6.368;2023-06-22T06:46:31;12.60;;;7.63;;
15677;SDS011;7939;50.814;6.368;2023-06-22T06:48:58;11.13;;;7.70;;
15677;SDS011;7939;50.814;6.368;2023-06-22T06:51:25;10.27;;;7.82;;
15677;SDS011;7939;50.814;6.368;2023-06-22T06:53:51;14.27;;;9.50;;
15677;SDS011;7939;50.814;6.368;2023-06-22T06:56:20;12.05;;;7.25;;
15677;SDS011;7939;50.814;6.368;2023-06-22T06:58:49;16.25;;;7.75;;
15677;SDS011;7939;50.814;6.368;2023-06-22T07:01:16;15.18;;;8.45;;
15677;SDS011;7939;50.814;6.368;2023-06-22T07:03:44;13.95;;;8.02;;
15677;SDS011;7939;50.814;6.368;2023-06-22T07:06:11;21.52;;;8.00;;
15677;SDS011;7939;50.814;6.368;2023-06-22T07:08:39;21.02;;;9.32;;
15677;SDS011;7939;50.814;6.368;2023-06-22T07:11:06;20.17;;;7.95;;
15677;SDS011;7939;50.814;6.368;2023-06-22T07:13:34;22.73;;;7.93;;
15677;SDS011;7939;50.814;6.368;2023-06-22T07:16:01;11.05;;;6.35;;
15677;SDS011;7939;50.814;6.368;2023-06-22T07:18:27;15.85;;;7.38;;
15677;SDS011;7939;50.814;6.368;2023-06-22T07:20:54;11.25;;;7.00;;
15677;SDS011;7939;50.814;6.368;2023-06-22T07:23:21;16.73;;;7.50;;
15677;SDS011;7939;50.814;6.368;2023-06-22T07:25:48;17.02;;;7.07;;
15677;SDS011;7939;50.814;6.368;2023-06-22T07:28:15;17.40;;;7.50;;
15677;SDS011;7939;50.814;6.368;2023-06-22T07:30:44;13.52;;;6.80;;
15677;SDS011;7939;50.814;6.368;2023-06-22T07:33:10;11.80;;;6.10;;
15677;SDS011;7939;50.814;6.368;2023-06-22T07:35:37;20.83;;;8.10;;
15677;SDS011;7939;50.814;6.368;2023-06-22T07:38:04;15.77;;;7.78;;
15677;SDS011;7939;50.814;6.368;2023-06-22T07:40:30;13.05;;;7.55;;
15677;SDS011;7939;50.814;6.368;2023-06-22T07:42:57;20.73;;;8.60;;
15677;SDS011;7939;50.814;6.368;2023-06-22T07:45:24;12.00;;;7.55;;
15677;SDS011;7939;50.814;6.368;2023-06-22T07:47:53;17.45;;;9.18;;
15677;SDS011;7939;50.814;6.368;2023-06-22T07:50:20;14.80;;;7.53;;
15677;SDS011;7939;50.814;6.368;2023-06-22T07:52:47;10.75;;;6.68;;
15677;SDS011;7939;50.814;6.368;2023-06-22T07:55:13;11.27;;;6.43;;
15677;SDS011;7939;50.814;6.368;2023-06-22T07:57:41;13.10;;;6.85;;
15677;SDS011;7939;50.814;6.368;2023-06-22T08:00:08;11.48;;;7.75;;
15677;SDS011;7939;50.814;6.368;2023-06-22T08:02:39;8.70;;;5.57;;
15677;SDS011;7939;50.814;6.368;2023-06-22T08:05:08;11.82;;;7.72;;
15677;SDS011;7939;50.814;6.368;2023-06-22T08:07:36;13.05;;;8.82;;
15677;SDS011;7939;50.814;6.368;2023-06-22T08:10:03;13.75;;;9.88;;
15677;SDS011;7939;50.814;6.368;2023-06-22T08:12:30;9.63;;;8.45;;
15677;SDS011;7939;50.814;6.368;2023-06-22T08:14:57;13.90;;;10.23;;
15677;SDS011;7939;50.814;6.368;2023-06-22T08:17:24;15.50;;;8.90;;
15677;SDS011;7939;50.814;6.368;2023-06-22T08:19:51;19.00;;;9.48;;
15677;SDS011;7939;50.814;6.368;2023-06-22T08:22:20;11.82;;;9.35;;
15677;SDS011;7939;50.814;6.368;2023-06-22T08:24:46;19.05;;;8.70;;
15677;SDS011;7939;50.814;6.368;2023-06-22T08:27:13;10.13;;;7.20;;
15677;SDS011;7939;50.814;6.368;2023-06-22T08:29:42;8.93;;;7.78;;
15677;SDS011;7939;50.814;6.368;2023-06-22T08:32:08;15.65;;;9.30;;
15677;SDS011;7939;50.814;6.368;2023-06-22T08:34:35;14.93;;;9.65;;
15677;SDS011;7939;50.814;6.368;2023-06-22T08:37:02;12.25;;;8.52;;
15677;SDS011;7939;50.814;6.368;2023-06-22T08:39:32;10.77;;;7.72;;
15677;SDS011;7939;50.814;6.368;2023-06-22T08:41:59;11.20;;;7.50;;
15677;SDS011;7939;50.814;6.368;2023-06-22T08:44:26;13.43;;;8.68;;
15677;SDS011;7939;50.814;6.368;2023-06-22T08:46:54;13.57;;;7.85;;
15677;SDS011;7939;50.814;6.368;2023-06-22T08:49:21;17.80;;;9.57;;
15677;SDS011;7939;50.814;6.368;2023-06-22T08:51:48;11.88;;;9.13;;
15677;SDS011;7939;50.814;6.368;2023-06-22T08:54:17;12.40;;;8.25;;
15677;SDS011;7939;50.814;6.368;2023-06-22T08:56:45;20.17;;;9.02;;
15677;SDS011;7939;50.814;6.368;2023-06-22T08:59:12;13.70;;;8.68;;
15677;SDS011;7939;50.814;6.368;2023-06-22T09:01:39;13.43;;;10.40;;
15677;SDS011;7939;50.814;6.368;2023-06-22T09:04:05;13.02;;;9.27;;
15677;SDS011;7939;50.814;6.368;2023-06-22T09:06:34;13.90;;;8.93;;
15677;SDS011;7939;50.814;6.368;2023-06-22T09:09:03;13.75;;;9.63;;
15677;SDS011;7939;50.814;6.368;2023-06-22T09:11:29;13.00;;;9.07;;
15677;SDS011;7939;50.814;6.368;2023-06-22T09:13:57;14.95;;;9.85;;
15677;SDS011;7939;50.814;6.368;2023-06-22T09:16:24;14.35;;;9.70;;
15677;SDS011;7939;50.814;6.368;2023-06-22T09:18:50;12.98;;;8.95;;
15677;SDS011;7939;50.814;6.368;2023-06-22T09:21:17;18.30;;;9.13;;
15677;SDS011;7939;50.814;6.368;2023-06-22T09:23:44;14.82;;;10.80;;
15677;SDS011;7939;50.814;6.368;2023-06-22T09:26:15;15.63;;;10.93;;
15677;SDS011;7939;50.814;6.368;2023-06-22T09:28:41;16.92;;;10.60;;
15677;SDS011;7939;50.814;6.368;2023-06-22T09:31:09;18.60;;;12.57;;
15677;SDS011;7939;50.814;6.368;2023-06-22T09:33:36;16.40;;;10.35;;
15677;SDS011;7939;50.814;6.368;2023-06-22T09:36:04;15.38;;;11.18;;
15677;SDS011;7939;50.814;6.368;2023-06-22T09:38:34;13.98;;;10.63;;
15677;SDS011;7939;50.814;6.368;2023-06-22T09:41:00;12.82;;;10.57;;
15677;SDS011;7939;50.814;6.368;2023-06-22T09:43:27;11.70;;;9.20;;
15677;SDS011;7939;50.814;6.368;2023-06-22T09:45:54;13.82;;;10.20;;
15677;SDS011;7939;50.814;6.368;2023-06-22T09:48:23;11.95;;;9.07;;
15677;SDS011;7939;50.814;6.368;2023-06-22T09:50:49;12.65;;;8.63;;
15677;SDS011;7939;50.814;6.368;2023-06-22T09:53:16;9.60;;;6.47;;
15677;SDS011;7939;50.814;6.368;2023-06-22T09:55:42;11.30;;;7.32;;
15677;SDS011;7939;50.814;6.368;2023-06-22T09:58:09;9.95;;;7.72;;
15677;SDS011;7939;50.814;6.368;2023-06-22T10:00:36;12.65;;;9.38;;
15677;SDS011;7939;50.814;6.368;2023-06-22T10:03:02;18.65;;;9.68;;
15677;SDS011;7939;50.814;6.368;2023-06-22T10:05:30;12.68;;;8.25;;
15677;SDS011;7939;50.814;6.368;2023-06-22T10:07:57;10.82;;;6.93;;
15677;SDS011;7939;50.814;6.368;2023-06-22T10:10:23;20.77;;;11.57;;
15677;SDS011;7939;50.814;6.368;2023-06-22T10:12:55;12.82;;;8.70;;
15677;SDS011;7939;50.814;6.368;2023-06-22T10:15:23;11.52;;;8.15;;
15677;SDS011;7939;50.814;6.368;2023-06-22T10:17:49;14.48;;;9.23;;
15677;SDS011;7939;50.814;6.368;2023-06-22T10:20:16;14.38;;;10.70;;
15677;SDS011;7939;50.814;6.368;2023-06-22T10:22:45;15.85;;;9.68;;
15677;SDS011;7939;50.814;6.368;2023-06-22T10:25:12;18.30;;;12.90;;
15677;SDS011;7939;50.814;6.368;2023-06-22T10:27:39;14.40;;;9.10;;
15677;SDS011;7939;50.814;6.368;2023-06-22T10:30:06;13.55;;;10.23;;
15677;SDS011;7939;50.814;6.368;2023-06-22T10:32:33;16.55;;;11.63;;
15677;SDS011;7939;50.814;6.368;2023-06-22T10:35:01;18.00;;;13.00;;
15677;SDS011;7939;50.814;6.368;2023-06-22T10:37:27;16.17;;;13.18;;
15677;SDS011;7939;50.814;6.368;2023-06-22T10:39:56;17.15;;;12.82;;
15677;SDS011;7939;50.814;6.368;2023-06-22T10:42:22;17.73;;;11.80;;
15677;SDS011;7939;50.814;6.368;2023-06-22T10:44:49;16.27;;;12.77;;
15677;SDS011;7939;50.814;6.368;2023-06-22T10:47:16;18.45;;;13.98;;
15677;SDS011;7939;50.814;6.368;2023-06-22T10:49:42;21.08;;;14.95;;
15677;SDS011;7939;50.814;6.368;2023-06-22T10:52:09;19.25;;;14.15;;
15677;SDS011;7939;50.814;6.368;2023-06-22T10:54:36;22.30;;;15.82;;
15677;SDS011;7939;50.814;6.368;2023-06-22T10:57:05;19.63;;;14.73;;
15677;SDS011;7939;50.814;6.368;2023-06-22T10:59:32;19.63;;;14.93;;
15677;SDS011;7939;50.814;6.368;2023-06-22T11:01:59;20.40;;;14.10;;
15677;SDS011;7939;50.814;6.368;2023-06-22T11:04:25;17.40;;;13.07;;
15677;SDS011;7939;50.814;6.368;2023-06-22T11:06:52;20.80;;;14.68;;
15677;SDS011;7939;50.814;6.368;2023-06-22T11:09:19;21.75;;;16.48;;
15677;SDS011;7939;50.814;6.368;2023-06-22T11:11:46;24.42;;;17.20;;
15677;SDS011;7939;50.814;6.368;2023-06-22T11:14:14;25.20;;;17.55;;
15677;SDS011;7939;50.814;6.368;2023-06-22T11:16:41;23.55;;;16.85;;
15677;SDS011;7939;50.814;6.368;2023-06-22T11:19:08;22.27;;;16.13;;
15677;SDS011;7939;50.814;6.368;2023-06-22T11:21:34;21.60;;;16.17;;
15677;SDS011;7939;50.814;6.368;2023-06-22T11:24:01;24.35;;;16.88;;
15677;SDS011;7939;50.814;6.368;2023-06-22T11:26:27;20.00;;;16.80;;
15677;SDS011;7939;50.814;6.368;2023-06-22T11:28:54;20.73;;;16.33;;
15677;SDS011;7939;50.814;6.368;2023-06-22T11:31:22;21.13;;;16.83;;
15677;SDS011;7939;50.814;6.368;2023-06-22T11:33:49;20.98;;;15.20;;
15677;SDS011;7939;50.814;6.368;2023-06-22T11:36:15;18.35;;;15.45;;
15677;SDS011;7939;50.814;6.368;2023-06-22T11:38:43;20.50;;;16.67;;
15677;SDS011;7939;50.814;6.368;2023-06-22T11:41:10;23.00;;;14.95;;
15677;SDS011;7939;50.814;6.368;2023-06-22T11:43:36;17.58;;;14.00;;
15677;SDS011;7939;50.814;6.368;2023-06-22T11:46:03;18.25;;;15.27;;
15677;SDS011;7939;50.814;6.368;2023-06-22T11:48:31;20.35;;;15.75;;
15677;SDS011;7939;50.814;6.368;2023-06-22T11:50:58;17.80;;;14.55;;
15677;SDS011;7939;50.814;6.368;2023-06-22T11:53:26;21.60;;;15.05;;
15677;SDS011;7939;50.814;6.368;2023-06-22T11:55:53;18.52;;;13.55;;
15677;SDS011;7939;50.814;6.368;2023-06-22T11:58:20;16.98;;;14.20;;
15677;SDS011;7939;50.814;6.368;2023-06-22T12:00:47;19.90;;;14.95;;
15677;SDS011;7939;50.814;6.368;2023-06-22T12:03:14;20.98;;;15.77;;
15677;SDS011;7939;50.814;6.368;2023-06-22T12:05:43;21.25;;;16.13;;
15677;SDS011;7939;50.814;6.368;2023-06-22T12:08:09;24.60;;;17.30;;
15677;SDS011;7939;50.814;6.368;2023-06-22T12:10:37;20.33;;;16.45;;
15677;SDS011;7939;50.814;6.368;2023-06-22T12:13:03;20.70;;;17.30;;
15677;SDS011;7939;50.814;6.368;2023-06-22T12:15:30;20.90;;;16.83;;
15677;SDS011;7939;50.814;6.368;2023-06-22T12:17:56;21.15;;;14.77;;
15677;SDS011;7939;50.814;6.368;2023-06-22T12:20:23;21.38;;;16.92;;
15677;SDS011;7939;50.814;6.368;2023-06-22T12:22:51;21.15;;;14.73;;
15677;SDS011;7939;50.814;6.368;2023-06-22T12:25:20;20.52;;;15.60;;
15677;SDS011;7939;50.814;6.368;2023-06-22T12:27:48;21.42;;;14.77;;
15677;SDS011;7939;50.814;6.368;2023-06-22T12:30:15;17.35;;;14.50;;
15677;SDS011;7939;50.814;6.368;2023-06-22T12:32:42;17.27;;;14.38;;
15677;SDS011;7939;50.814;6.368;2023-06-22T12:35:09;15.95;;;13.50;;
15677;SDS011;7939;50.814;6.368;2023-06-22T12:37:39;16.83;;;13.77;;
15677;SDS011;7939;50.814;6.368;2023-06-22T12:40:08;20.92;;;12.93;;
15677;SDS011;7939;50.814;6.368;2023-06-22T12:42:36;18.15;;;12.25;;
15677;SDS011;7939;50.814;6.368;2023-06-22T12:45:02;15.95;;;13.10;;
15677;SDS011;7939;50.814;6.368;2023-06-22T12:47:30;16.45;;;12.68;;
15677;SDS011;7939;50.814;6.368;2023-06-22T12:49:57;17.17;;;13.25;;
15677;SDS011;7939;50.814;6.368;2023-06-22T12:52:23;15.15;;;13.27;;
15677;SDS011;7939;50.814;6.368;2023-06-22T12:54:50;18.75;;;13.70;;
15677;SDS011;7939;50.814;6.368;2023-06-22T12:57:18;18.85;;;13.35;;
15677;SDS011;7939;50.814;6.368;2023-06-22T12:59:45;19.05;;;14.10;;
15677;SDS011;7939;50.814;6.368;2023-06-22T13:02:12;20.00;;;14.55;;
15677;SDS011;7939;50.814;6.368;2023-06-22T13:04:38;19.23;;;15.02;;
15677;SDS011;7939;50.814;6.368;2023-06-22T13:07:05;20.45;;;15.77;;
15677;SDS011;7939;50.814;6.368;2023-06-22T13:09:32;22.33;;;15.80;;
15677;SDS011;7939;50.814;6.368;2023-06-22T13:12:00;19.52;;;15.02;;
15677;SDS011;7939;50.814;6.368;2023-06-22T13:14:28;20.08;;;16.35;;
15677;SDS011;7939;50.814;6.368;2023-06-22T13:16:55;18.02;;;14.55;;
15677;SDS011;7939;50.814;6.368;2023-06-22T13:19:22;18.45;;;14.77;;
15677;SDS011;7939;50.814;6.368;2023-06-22T13:21:48;19.75;;;14.80;;
15677;SDS011;7939;50.814;6.368;2023-06-22T13:24:15;20.20;;;16.20;;
15677;SDS011;7939;50.814;6.368;2023-06-22T13:26:42;17.70;;;15.48;;
15677;SDS011;7939;50.814;6.368;2023-06-22T13:29:08;21.25;;;15.93;;
15677;SDS011;7939;50.814;6.368;2023-06-22T13:31:36;20.60;;;15.68;;
15677;SDS011;7939;50.814;6.368;2023-06-22T13:34:03;17.90;;;15.10;;
15677;SDS011;7939;50.814;6.368;2023-06-22T13:36:30;18.83;;;14.98;;
15677;SDS011;7939;50.814;6.368;2023-06-22T13:38:56;19.17;;;14.13;;
15677;SDS011;7939;50.814;6.368;2023-06-22T13:41:23;23.35;;;17.40;;
15677;SDS011;7939;50.814;6.368;2023-06-22T13:43:50;22.42;;;16.33;;
15677;SDS011;7939;50.814;6.368;2023-06-22T13:46:17;22.60;;;16.83;;
15677;SDS011;7939;50.814;6.368;2023-06-22T13:48:45;23.42;;;17.83;;
15677;SDS011;7939;50.814;6.368;2023-06-22T13:51:12;23.05;;;18.85;;
15677;SDS011;7939;50.814;6.368;2023-06-22T13:53:38;24.95;;;18.33;;
15677;SDS011;7939;50.814;6.368;2023-06-22T13:56:05;25.60;;;18.75;;
15677;SDS011;7939;50.814;6.368;2023-06-22T13:58:32;22.63;;;18.30;;
15677;SDS011;7939;50.814;6.368;2023-06-22T14:00:58;26.42;;;18.48;;
15677;SDS011;7939;50.814;6.368;2023-06-22T14:03:25;21.95;;;18.75;;
15677;SDS011;7939;50.814;6.368;2023-06-22T14:05:53;25.10;;;19.60;;
15677;SDS011;7939;50.814;6.368;2023-06-22T14:08:21;21.52;;;16.92;;
15677;SDS011;7939;50.814;6.368;2023-06-22T14:10:48;24.35;;;18.05;;
15677;SDS011;7939;50.814;6.368;2023-06-22T14:13:15;21.45;;;18.27;;
15677;SDS011;7939;50.814;6.368;2023-06-22T14:15:42;20.50;;;16.63;;
15677;SDS011;7939;50.814;6.368;2023-06-22T14:18:08;24.10;;;16.60;;
15677;SDS011;7939;50.814;6.368;2023-06-22T14:20:35;18.67;;;15.65;;
15677;SDS011;7939;50.814;6.368;2023-06-22T14:23:03;17.65;;;14.80;;
15677;SDS011;7939;50.814;6.368;2023-06-22T14:25:29;20.38;;;15.02;;
15677;SDS011;7939;50.814;6.368;2023-06-22T14:27:56;19.23;;;14.93;;
15677;SDS011;7939;50.814;6.368;2023-06-22T14:30:23;16.92;;;14.05;;
15677;SDS011;7939;50.814;6.368;2023-06-22T14:32:49;17.85;;;13.60;;
15677;SDS011;7939;50.814;6.368;2023-06-22T14:35:16;17.25;;;12.60;;
15677;SDS011;7939;50.814;6.368;2023-06-22T14:37:43;17.48;;;14.32;;
15677;SDS011;7939;50.814;6.368;2023-06-22T14:40:12;18.23;;;14.02;;
15677;SDS011;7939;50.814;6.368;2023-06-22T14:42:38;21.40;;;16.15;;
15677;SDS011;7939;50.814;6.368;2023-06-22T14:45:05;22.40;;;17.85;;
15677;SDS011;7939;50.814;6.368;2023-06-22T14:47:33;22.10;;;18.10;;
15677;SDS011;7939;50.814;6.368;2023-06-22T14:49:59;24.35;;;17.70;;